Time;durP1;ratioP1;P1;durP2;ratioP2;P2;SDS_P1;SDS_P2;PMS_P1;PMS_P2;Temp;Humidity;BMP_temperature;BMP_pressure;BME280_temperature;BME280_humidity;BME280_pressure;Samples;Min_cycle;Max_cycle;Signal;HPM_P1;HPM_P2
2022/04/25 00:02:25;;;;;;;19.10;15.27;;;;;;;-143.37;100.00;62585.38;5057177;28;20765;-78
2022/04/25 00:05:01;;;;;;;15.50;13.10;;;;;;;-143.37;100.00;62585.38;5083269;28;20516;-78
2022/04/25 00:07:37;;;;;;;14.43;12.47;;;;;;;-143.37;100.00;62585.38;5083673;28;20446;-78
2022/04/25 00:10:13;;;;;;;15.90;13.83;;;;;;;-143.37;100.00;62585.38;5080795;28;20919;-78
2022/04/25 00:12:49;;;;;;;22.00;14.33;;;;;;;-143.37;100.00;62585.38;5088077;28;20843;-78
2022/04/25 00:15:27;;;;;;;17.40;13.27;;;;;;;-143.37;100.00;62585.38;5099555;28;20481;-78
2022/04/25 00:18:03;;;;;;;15.83;13.07;;;;;;;-143.37;100.00;62585.38;5080284;28;20552;-78
2022/04/25 00:20:43;;;;;;;17.90;14.17;;;;;;;-143.37;100.00;62585.38;5066625;28;20428;-78
2022/04/25 00:23:21;;;;;;;17.00;13.67;;;;;;;-143.37;100.00;62585.38;5083872;28;20556;-78
2022/04/25 00:25:56;;;;;;;17.97;14.97;;;;;;;-143.37;100.00;62585.38;5093992;28;20449;-78
2022/04/25 00:28:31;;;;;;;21.50;15.27;;;;;;;-143.37;100.00;62585.38;5077677;28;20452;-79
2022/04/25 00:31:08;;;;;;;17.83;14.60;;;;;;;-143.37;100.00;62585.38;5077715;28;20430;-79
2022/04/25 00:33:44;;;;;;;19.63;16.10;;;;;;;-143.37;100.00;62585.38;5077784;28;20553;-78
2022/04/25 00:36:21;;;;;;;19.80;16.70;;;;;;;-143.37;100.00;62585.38;5079278;28;20524;-78
2022/04/25 00:38:56;;;;;;;22.00;18.13;;;;;;;-143.37;100.00;62585.38;5061188;28;20932;-78
2022/04/25 00:41:32;;;;;;;20.50;17.17;;;;;;;-143.37;100.00;62585.38;5061685;28;20437;-78
2022/04/25 00:44:07;;;;;;;23.20;18.40;;;;;;;-143.37;100.00;62585.38;5086685;28;20531;-78
2022/04/25 00:46:47;;;;;;;19.57;16.30;;;;;;;-143.37;100.00;62585.38;5091628;28;20449;-78
2022/04/25 00:49:23;;;;;;;20.37;16.37;;;;;;;-143.37;100.00;62585.38;5075544;28;20433;-78
2022/04/25 00:51:59;;;;;;;18.13;16.23;;;;;;;-143.37;100.00;62585.38;5090184;28;20443;-78
2022/04/25 00:54:35;;;;;;;22.47;17.93;;;;;;;-143.37;100.00;62585.38;5091356;28;20428;-78
2022/04/25 00:57:11;;;;;;;21.90;18.27;;;;;;;-143.37;100.00;62585.38;5084083;28;20439;-78
2022/04/25 00:59:50;;;;;;;21.43;16.20;;;;;;;-143.37;100.00;62585.38;5096067;28;20440;-78
2022/04/25 01:02:27;;;;;;;21.27;18.07;;;;;;;-143.37;100.00;62585.38;5073813;28;20477;-78
2022/04/25 01:05:05;;;;;;;24.17;18.67;;;;;;;-143.37;100.00;62585.38;5067167;28;20948;-78
2022/04/25 01:07:41;;;;;;;21.60;17.90;;;;;;;-143.37;100.00;62585.38;5072494;28;20445;-78
2022/04/25 01:10:16;;;;;;;22.07;18.50;;;;;;;-143.37;100.00;62585.38;5056259;28;21098;-78
2022/04/25 01:12:52;;;;;;;24.90;20.33;;;;;;;-143.37;100.00;62585.38;5066973;28;20471;-78
2022/04/25 01:15:28;;;;;;;23.67;19.00;;;;;;;-143.37;100.00;62585.38;5063255;28;20441;-78
2022/04/25 01:18:05;;;;;;;23.03;19.57;;;;;;;-143.37;100.00;62585.38;5065024;28;20442;-78
2022/04/25 01:20:42;;;;;;;24.77;19.70;;;;;;;-143.37;100.00;62585.38;5054085;28;20900;-78
2022/04/25 01:29:21;;;;;;;22.93;19.70;;;;;;;-143.37;100.00;62585.38;4994830;28;20456;-78
2022/04/25 01:31:57;;;;;;;23.87;20.60;;;;;;;-143.37;100.00;62585.38;4969609;28;20922;-78
2022/04/25 01:34:36;;;;;;;24.17;19.13;;;;;;;-143.37;100.00;62585.38;5055060;28;20545;-78
2022/04/25 01:37:14;;;;;;;22.17;17.77;;;;;;;-143.37;100.00;62585.38;5066604;28;20816;-78
2022/04/25 01:39:52;;;;;;;20.13;17.07;;;;;;;-143.37;100.00;62585.38;5055207;28;20536;-78
2022/04/25 01:42:28;;;;;;;24.43;19.50;;;;;;;-143.37;100.00;62585.38;5083084;28;20549;-78
2022/04/25 01:45:04;;;;;;;24.70;19.60;;;;;;;-143.37;100.00;62585.38;5083660;28;20430;-78
2022/04/25 01:47:40;;;;;;;23.47;18.70;;;;;;;-143.37;100.00;62585.38;5054371;28;20452;-78
2022/04/25 01:50:16;;;;;;;25.00;21.20;;;;;;;-143.37;100.00;62585.38;5070424;28;20432;-78
2022/04/25 01:52:52;;;;;;;22.90;19.53;;;;;;;-143.37;100.00;62585.38;5065793;28;20469;-77
2022/04/25 01:55:30;;;;;;;25.87;20.50;;;;;;;-143.37;100.00;62585.38;5069667;28;20800;-77
2022/04/25 01:58:05;;;;;;;24.80;20.40;;;;;;;-143.37;100.00;62585.38;5069124;28;20438;-78
2022/04/25 02:00:41;;;;;;;22.77;18.13;;;;;;;-143.37;100.00;62585.38;5055080;28;20547;-78
2022/04/25 02:03:17;;;;;;;25.40;20.70;;;;;;;-143.37;100.00;62585.38;5072191;28;20502;-78
2022/04/25 02:05:53;;;;;;;25.57;20.50;;;;;;;-143.37;100.00;62585.38;5054066;28;20998;-78
2022/04/25 02:08:29;;;;;;;23.53;19.60;;;;;;;-143.37;100.00;62585.38;5066837;28;20445;-78
2022/04/25 02:11:21;;;;;;;25.87;20.97;;;;;;;-143.37;100.00;62585.38;5071709;28;20432;-78
2022/04/25 02:13:57;;;;;;;22.83;19.30;;;;;;;-143.37;100.00;62585.38;5064887;28;20496;-78
2022/04/25 02:16:34;;;;;;;24.10;19.90;;;;;;;-143.37;100.00;62585.38;5053434;28;20442;-78
2022/04/25 02:19:09;;;;;;;25.87;21.27;;;;;;;-143.37;100.00;62585.38;5051400;28;20464;-78
2022/04/25 02:21:45;;;;;;;24.70;21.43;;;;;;;-143.37;100.00;62585.38;5072263;28;20436;-78
2022/04/25 02:24:21;;;;;;;25.13;20.80;;;;;;;-143.37;100.00;62585.38;5056207;28;20440;-78
2022/04/25 02:26:57;;;;;;;24.77;20.43;;;;;;;-143.37;100.00;62585.38;5071834;28;20549;-78
2022/04/25 02:29:33;;;;;;;26.20;20.13;;;;;;;-143.37;100.00;62585.38;5052060;28;20433;-78
2022/04/25 02:32:12;;;;;;;27.43;21.90;;;;;;;-143.37;100.00;62585.38;5053317;28;20469;-78
2022/04/25 02:34:50;;;;;;;25.87;20.40;;;;;;;-143.37;100.00;62585.38;5054601;28;20565;-78
2022/04/25 02:37:26;;;;;;;22.17;19.20;;;;;;;-143.37;100.00;62585.38;5051966;28;20551;-78
2022/04/25 02:40:01;;;;;;;24.60;19.33;;;;;;;-143.37;100.00;62585.38;5067391;28;20425;-78
2022/04/25 02:42:38;;;;;;;23.23;19.23;;;;;;;-143.37;100.00;62585.38;5086157;28;20503;-79
2022/04/25 02:45:14;;;;;;;27.40;20.13;;;;;;;-143.37;100.00;62585.38;5067000;28;20429;-78
2022/04/25 02:47:50;;;;;;;25.77;19.90;;;;;;;-143.37;100.00;62585.38;5051774;28;20445;-78
2022/04/25 02:50:26;;;;;;;25.70;19.80;;;;;;;-143.37;100.00;62585.38;5051746;28;20956;-78
2022/04/25 02:53:02;;;;;;;25.90;19.97;;;;;;;-143.37;100.00;62585.38;5057645;28;20494;-78
2022/04/25 02:55:38;;;;;;;26.60;21.60;;;;;;;-143.37;100.00;62585.38;5052723;28;21047;-78
2022/04/25 02:58:15;;;;;;;25.10;20.93;;;;;;;-143.37;100.00;62585.38;5050563;28;20445;-78
2022/04/25 03:00:52;;;;;;;22.30;18.47;;;;;;;-143.37;100.00;62585.38;5065788;28;20730;-78
2022/04/25 03:03:27;;;;;;;23.60;19.97;;;;;;;-143.37;100.00;62585.38;5083812;28;20449;-78
2022/04/25 03:06:04;;;;;;;24.37;20.10;;;;;;;-143.37;100.00;62585.38;5082574;28;20473;-78
2022/04/25 03:08:41;;;;;;;26.30;21.07;;;;;;;-143.37;100.00;62585.38;5067881;28;20437;-78
2022/04/25 03:11:16;;;;;;;24.67;19.23;;;;;;;-143.37;100.00;62585.38;5070400;28;21329;-78
2022/04/25 03:13:56;;;;;;;25.13;19.83;;;;;;;-143.37;100.00;62585.38;5066329;28;20464;-78
2022/04/25 03:16:33;;;;;;;21.90;18.90;;;;;;;-143.37;100.00;62585.38;5063409;28;20434;-78
2022/04/25 03:19:09;;;;;;;27.47;20.97;;;;;;;-143.37;100.00;62585.38;5066888;28;20446;-78
2022/04/25 03:21:44;;;;;;;24.70;20.73;;;;;;;-143.37;100.00;62585.38;5068087;28;21049;-78
2022/04/25 03:24:23;;;;;;;26.60;20.00;;;;;;;-143.37;100.00;62585.38;5054348;28;20432;-78
2022/04/25 03:26:59;;;;;;;24.83;20.80;;;;;;;-143.37;100.00;62585.38;5064349;28;20529;-78
2022/04/25 03:29:37;;;;;;;23.90;18.90;;;;;;;-143.37;100.00;62585.38;5053038;28;20776;-78
2022/04/25 03:32:12;;;;;;;24.60;20.70;;;;;;;-143.37;100.00;62585.38;5084608;28;20472;-78
2022/04/25 03:34:49;;;;;;;24.23;19.70;;;;;;;-143.37;100.00;62585.38;5069118;28;20452;-78
2022/04/25 03:37:29;;;;;;;26.80;19.30;;;;;;;-143.37;100.00;62585.38;5064424;28;20436;-78
2022/04/25 03:40:05;;;;;;;23.80;20.60;;;;;;;-143.37;100.00;62585.38;5066676;28;20449;-78
2022/04/25 03:42:42;;;;;;;23.40;19.47;;;;;;;-143.37;100.00;62585.38;5083267;28;20445;-76
2022/04/25 03:45:19;;;;;;;24.50;19.80;;;;;;;-143.37;100.00;62585.38;5050168;28;20505;-78
2022/04/25 03:47:54;;;;;;;22.97;18.10;;;;;;;-143.37;100.00;62585.38;5051659;28;20452;-78
2022/04/25 03:50:32;;;;;;;23.30;19.43;;;;;;;-143.37;100.00;62585.38;5063120;28;20430;-78
2022/04/25 03:53:09;;;;;;;25.37;20.23;;;;;;;-143.37;100.00;62585.38;5080149;28;20472;-78
2022/04/25 03:58:38;;;;;;;27.67;20.60;;;;;;;-143.37;100.00;62585.38;5064304;28;20437;-79
2022/04/25 04:01:15;;;;;;;26.37;20.73;;;;;;;-143.37;100.00;62585.38;5070171;28;20464;-78
2022/04/25 04:03:51;;;;;;;23.77;20.13;;;;;;;-143.37;100.00;62585.38;5066445;28;20442;-78
2022/04/25 04:06:26;;;;;;;24.07;19.33;;;;;;;-143.37;100.00;62585.38;5085641;28;20471;-78
2022/04/25 04:09:44;;;;;;;25.60;20.57;;;;;;;-143.37;100.00;62585.38;5080274;28;20447;-78
2022/04/25 04:11:58;;;;;;;26.00;19.53;;;;;;;-143.37;100.00;62585.38;5086115;28;20837;-78
2022/04/25 04:14:33;;;;;;;22.93;19.00;;;;;;;-143.37;100.00;62585.38;5083079;28;20453;-78
2022/04/25 04:17:10;;;;;;;23.10;18.03;;;;;;;-143.37;100.00;62585.38;5084420;28;20436;-78
2022/04/25 04:19:47;;;;;;;26.20;20.90;;;;;;;-143.37;100.00;62585.38;5087372;28;20437;-78
2022/04/25 04:22:23;;;;;;;25.17;19.00;;;;;;;-143.37;100.00;62585.38;5072966;28;20441;-78
2022/04/25 04:25:01;;;;;;;24.87;18.80;;;;;;;-143.37;100.00;62585.38;5084062;28;20987;-78
2022/04/25 04:27:36;;;;;;;26.90;20.30;;;;;;;-143.37;100.00;62585.38;5088081;28;20444;-78
2022/04/25 04:30:13;;;;;;;23.87;19.20;;;;;;;-143.37;100.00;62585.38;5069453;28;20519;-78
2022/04/25 04:32:52;;;;;;;24.30;19.40;;;;;;;-143.37;100.00;62585.38;5088246;28;20456;-79
2022/04/25 04:38:21;;;;;;;27.60;22.57;;;;;;;-143.37;100.00;62585.38;5066347;28;20484;-78
2022/04/25 04:40:57;;;;;;;27.30;21.57;;;;;;;-143.37;100.00;62585.38;5084713;28;20429;-78
2022/04/25 04:43:32;;;;;;;24.57;20.17;;;;;;;-143.37;100.00;62585.38;5087550;28;20527;-78
2022/04/25 04:46:08;;;;;;;27.17;20.50;;;;;;;-143.37;100.00;62585.38;5065554;28;20441;-78
2022/04/25 04:48:46;;;;;;;25.80;19.57;;;;;;;-143.37;100.00;62585.38;5088987;28;20461;-78
2022/04/25 04:51:23;;;;;;;26.63;21.47;;;;;;;-143.37;100.00;62585.38;5075187;28;20448;-79
2022/04/25 04:53:59;;;;;;;27.33;21.87;;;;;;;-143.37;100.00;62585.38;5076238;28;20881;-79
2022/04/25 04:56:35;;;;;;;26.07;21.63;;;;;;;-143.37;100.00;62585.38;5063321;28;20952;-79
2022/04/25 04:59:12;;;;;;;26.17;20.40;;;;;;;-143.37;100.00;62585.38;5081139;28;20445;-78
2022/04/25 05:01:49;;;;;;;29.30;23.07;;;;;;;-143.37;100.00;62585.38;5074665;28;20468;-79
2022/04/25 05:04:26;;;;;;;30.57;23.10;;;;;;;-143.37;100.00;62585.38;5065368;28;20425;-78
2022/04/25 05:07:01;;;;;;;28.70;21.87;;;;;;;-143.37;100.00;62585.38;5066849;28;20448;-79
2022/04/25 05:09:37;;;;;;;26.87;21.47;;;;;;;-143.37;100.00;62585.38;5063558;28;20754;-79
2022/04/25 05:12:13;;;;;;;26.90;21.97;;;;;;;-143.37;100.00;62585.38;5063389;28;20532;-79
2022/04/25 05:14:48;;;;;;;26.87;20.50;;;;;;;-143.37;100.00;62585.38;5066781;28;20460;-79
2022/04/25 05:17:24;;;;;;;26.50;21.70;;;;;;;-143.37;100.00;62585.38;5083905;28;20453;-79
2022/04/25 05:20:01;;;;;;;25.80;19.90;;;;;;;-143.37;100.00;62585.38;5064648;28;20775;-78
2022/04/25 05:22:39;;;;;;;27.73;21.60;;;;;;;-143.37;100.00;62585.38;5049638;28;20814;-78
2022/04/25 05:25:15;;;;;;;26.53;21.10;;;;;;;-143.37;100.00;62585.38;5050014;28;21005;-78
2022/04/25 05:27:52;;;;;;;26.23;20.90;;;;;;;-143.37;100.00;62585.38;5065782;28;20440;-78
2022/04/25 05:30:28;;;;;;;24.40;19.80;;;;;;;-143.37;100.00;62585.38;5069852;28;20444;-78
2022/04/25 05:33:05;;;;;;;27.00;20.37;;;;;;;-143.37;100.00;62585.38;5082073;28;20961;-78
2022/04/25 05:35:42;;;;;;;26.07;21.47;;;;;;;-143.37;100.00;62585.38;5068037;28;20540;-78
2022/04/25 05:38:18;;;;;;;25.33;19.63;;;;;;;-143.37;100.00;62585.38;5068861;28;20448;-78
2022/04/25 05:40:55;;;;;;;27.63;20.30;;;;;;;-143.37;100.00;62585.38;5056220;28;20461;-80
2022/04/25 05:43:44;;;;;;;22.40;19.20;;;;;;;-143.37;100.00;62585.38;5070767;28;20962;-80
2022/04/25 05:46:47;;;;;;;25.97;20.63;;;;;;;-143.37;100.00;62585.38;5057517;28;20465;-78
2022/04/25 05:52:47;;;;;;;24.00;19.60;;;;;;;-143.37;100.00;62585.38;5051357;28;20502;-79
2022/04/25 05:55:23;;;;;;;24.23;19.80;;;;;;;-143.37;100.00;62585.38;5064448;28;20719;-79
2022/04/25 05:58:00;;;;;;;25.10;18.53;;;;;;;-143.37;100.00;62585.38;5067040;28;20460;-79
2022/04/25 06:00:35;;;;;;;24.63;19.90;;;;;;;-143.37;100.00;62585.38;5057150;28;20478;-79
2022/04/25 06:03:21;;;;;;;25.13;19.67;;;;;;;-143.37;100.00;62585.38;5068798;28;20825;-79
2022/04/25 06:05:56;;;;;;;24.17;19.13;;;;;;;-143.37;100.00;62585.38;5086146;28;20477;-80
2022/04/25 06:08:34;;;;;;;23.57;19.30;;;;;;;-143.37;100.00;62585.38;5069374;28;20433;-79
2022/04/25 06:11:09;;;;;;;24.10;19.60;;;;;;;-143.37;100.00;62585.38;5070650;28;20445;-79
2022/04/25 06:13:47;;;;;;;23.50;19.87;;;;;;;-143.37;100.00;62585.38;5051898;28;20462;-79
2022/04/25 06:16:23;;;;;;;26.47;20.70;;;;;;;-143.37;100.00;62585.38;5050315;28;20526;-79
2022/04/25 06:18:59;;;;;;;27.70;21.27;;;;;;;-143.37;100.00;62585.38;5055567;28;20429;-79
2022/04/25 06:21:35;;;;;;;27.30;21.53;;;;;;;-143.37;100.00;62585.38;5055268;28;20433;-79
2022/04/25 06:24:12;;;;;;;27.40;19.97;;;;;;;-143.37;100.00;62585.38;5070130;28;20843;-80
2022/04/25 06:26:50;;;;;;;23.60;19.40;;;;;;;-143.37;100.00;62585.38;5043043;28;20578;-79
2022/04/25 06:29:25;;;;;;;22.67;19.10;;;;;;;-143.37;100.00;62585.38;5086792;28;20460;-80
2022/04/25 06:32:03;;;;;;;24.23;20.30;;;;;;;-143.37;100.00;62585.38;5068802;28;20456;-80
2022/04/25 06:34:39;;;;;;;21.90;19.07;;;;;;;-143.37;100.00;62585.38;5052626;28;20464;-79
2022/04/25 06:37:14;;;;;;;23.03;19.67;;;;;;;-143.37;100.00;62585.38;5067593;28;20448;-79
2022/04/25 06:39:51;;;;;;;23.43;20.37;;;;;;;-143.37;100.00;62585.38;5052999;28;20444;-80
2022/04/25 06:42:27;;;;;;;20.47;17.23;;;;;;;-143.37;100.00;62585.38;5066734;28;20825;-80
2022/04/25 06:45:04;;;;;;;23.03;20.17;;;;;;;-143.37;100.00;62585.38;5052938;28;20441;-79
2022/04/25 06:47:40;;;;;;;20.13;16.70;;;;;;;-143.37;100.00;62585.38;5069677;28;20477;-80
2022/04/25 06:50:16;;;;;;;17.27;15.50;;;;;;;-143.37;100.00;62585.38;5066750;28;20433;-80
2022/04/25 06:52:52;;;;;;;20.87;18.10;;;;;;;-143.37;100.00;62585.38;5051292;28;21113;-80
2022/04/25 06:55:29;;;;;;;19.93;15.60;;;;;;;-143.37;100.00;62585.38;5066524;28;20468;-80
2022/04/25 06:58:06;;;;;;;19.20;16.60;;;;;;;-143.37;100.00;62585.38;5047345;28;20460;-80
2022/04/25 07:00:42;;;;;;;16.80;15.10;;;;;;;-143.37;100.00;62585.38;5064637;28;20544;-79
2022/04/25 07:03:17;;;;;;;16.63;14.87;;;;;;;-143.37;100.00;62585.38;5061537;28;20454;-79
2022/04/25 07:05:54;;;;;;;16.50;14.80;;;;;;;-143.37;100.00;62585.38;5058484;28;20445;-79
2022/04/25 07:08:29;;;;;;;18.67;16.67;;;;;;;-143.37;100.00;62585.38;5044660;28;20448;-79
2022/04/25 07:11:07;;;;;;;17.67;15.77;;;;;;;-143.37;100.00;62585.38;5066778;28;20444;-80
2022/04/25 07:13:42;;;;;;;17.70;15.80;;;;;;;-143.37;100.00;62585.38;5079496;28;20450;-79
2022/04/25 07:16:18;;;;;;;17.00;15.20;;;;;;;-143.37;100.00;62585.38;5061094;28;21248;-79
2022/04/25 07:18:57;;;;;;;17.80;15.17;;;;;;;-143.37;100.00;62585.38;5068224;28;20468;-79
2022/04/25 07:30:17;;;;;;;18.10;15.50;;;;;;;-143.37;100.00;62585.38;5059761;28;20473;-79
2022/04/25 07:32:52;;;;;;;16.97;14.23;;;;;;;-143.37;100.00;62585.38;5060967;28;20790;-79
2022/04/25 07:35:29;;;;;;;17.33;15.50;;;;;;;-143.37;100.00;62585.38;5044358;28;20466;-79
2022/04/25 07:38:04;;;;;;;17.20;15.33;;;;;;;-143.37;100.00;62585.38;5064237;28;20441;-79
2022/04/25 07:40:41;;;;;;;15.60;14.00;;;;;;;-143.37;100.00;62585.38;5051091;28;20953;-79
2022/04/25 07:43:18;;;;;;;17.73;15.83;;;;;;;-143.37;100.00;62585.38;5051986;28;21157;-79
2022/04/25 07:45:53;;;;;;;16.73;15.00;;;;;;;-143.37;100.00;62585.38;5050818;28;22240;-80
2022/04/25 07:48:29;;;;;;;18.37;15.90;;;;;;;-143.37;100.00;62585.38;5065777;28;20449;-80
2022/04/25 07:51:05;;;;;;;17.43;15.63;;;;;;;-143.37;100.00;62585.38;5064895;28;20465;-77
2022/04/25 07:53:40;;;;;;;15.77;13.80;;;;;;;-143.37;100.00;62585.38;5065248;28;20442;-78
2022/04/25 07:56:16;;;;;;;16.80;14.60;;;;;;;-143.37;100.00;62585.38;5047844;28;20778;-78
2022/04/25 07:58:53;;;;;;;16.43;13.13;;;;;;;-143.37;100.00;62585.38;5065505;28;20441;-83
2022/04/25 08:01:29;;;;;;;15.07;13.30;;;;;;;-143.37;100.00;62585.38;5065084;28;20578;-83
2022/04/25 08:04:06;;;;;;;16.83;15.17;;;;;;;-143.37;100.00;62585.38;5047581;28;20449;-80
2022/04/25 08:06:41;;;;;;;15.47;13.87;;;;;;;-143.37;100.00;62585.38;5045691;28;20444;-79
2022/04/25 08:09:17;;;;;;;17.67;13.20;;;;;;;-143.37;100.00;62585.38;5047791;28;20444;-79
2022/04/25 08:17:56;;;;;;;14.20;12.77;;;;;;;-143.37;100.00;62585.38;5060547;28;20449;-80
2022/04/25 08:17:59;;;;;;;14.10;12.60;;;;;;;-143.37;100.00;62585.38;5003851;28;20449;-80
2022/04/25 08:20:37;;;;;;;16.13;14.43;;;;;;;-143.37;100.00;62585.38;5051016;28;20442;-80
2022/04/25 08:23:14;;;;;;;14.37;12.67;;;;;;;-143.37;100.00;62585.38;5063359;28;20449;-79
2022/04/25 08:25:52;;;;;;;15.43;13.80;;;;;;;-143.37;100.00;62585.38;5048871;28;20444;-79
2022/04/25 08:28:27;;;;;;;15.13;13.30;;;;;;;-143.37;100.00;62585.38;5072723;28;20444;-79
2022/04/25 08:31:07;;;;;;;16.30;14.23;;;;;;;-143.37;100.00;62585.38;5050244;28;20480;-79
2022/04/25 08:33:43;;;;;;;15.77;13.77;;;;;;;-143.37;100.00;62585.38;5059969;28;20452;-79
2022/04/25 08:36:21;;;;;;;15.23;12.50;;;;;;;-143.37;100.00;62585.38;5059150;28;20469;-79
2022/04/25 08:38:58;;;;;;;16.10;14.10;;;;;;;-143.37;100.00;62585.38;5069635;28;20535;-79
2022/04/25 08:41:38;;;;;;;13.47;12.10;;;;;;;-143.37;100.00;62585.38;5047204;28;20853;-79
2022/04/25 08:44:17;;;;;;;15.80;13.23;;;;;;;-143.37;100.00;62585.38;5065488;28;20441;-79
2022/04/25 08:46:55;;;;;;;15.07;12.87;;;;;;;-143.37;100.00;62585.38;5053422;28;20445;-79
2022/04/25 08:49:31;;;;;;;14.33;12.83;;;;;;;-143.37;100.00;62585.38;5049467;28;20761;-79
2022/04/25 08:52:07;;;;;;;18.37;14.77;;;;;;;-143.37;100.00;62585.38;5078592;28;20449;-78
2022/04/25 08:54:44;;;;;;;16.37;14.30;;;;;;;-143.37;100.00;62585.38;5064775;28;20472;-79
2022/04/25 08:57:20;;;;;;;17.00;14.80;;;;;;;-143.37;100.00;62585.38;5064549;28;20819;-79
2022/04/25 08:59:56;;;;;;;19.30;15.60;;;;;;;-143.37;100.00;62585.38;5063298;28;20447;-78
2022/04/25 09:02:34;;;;;;;17.93;16.13;;;;;;;-143.37;100.00;62585.38;5064333;28;20477;-79
2022/04/25 09:05:10;;;;;;;15.30;13.80;;;;;;;-143.37;100.00;62585.38;5052679;28;20823;-78
2022/04/25 09:07:46;;;;;;;17.13;14.93;;;;;;;-143.37;100.00;62585.38;5068858;28;20433;-78
2022/04/25 09:10:22;;;;;;;18.03;15.00;;;;;;;-143.37;100.00;62585.38;5047492;28;20444;-79
2022/04/25 09:12:59;;;;;;;15.40;13.80;;;;;;;-143.37;100.00;62585.38;5052860;28;20456;-79
2022/04/25 09:15:34;;;;;;;16.47;14.53;;;;;;;-143.37;100.00;62585.38;5065185;28;20457;-79
2022/04/25 09:18:12;;;;;;;15.00;13.40;;;;;;;-143.37;100.00;62585.38;5070283;28;20444;-79
2022/04/25 09:20:47;;;;;;;20.40;16.30;;;;;;;-143.37;100.00;62585.38;5065391;28;20488;-78
2022/04/25 09:23:23;;;;;;;16.50;14.80;;;;;;;-143.37;100.00;62585.38;5082318;28;20460;-78
2022/04/25 09:26:12;;;;;;;19.07;14.90;;;;;;;-143.37;100.00;62585.38;5067106;28;20437;-78
2022/04/25 09:28:52;;;;;;;17.13;15.33;;;;;;;-143.37;100.00;62585.38;5063034;28;20454;-79
2022/04/25 09:31:28;;;;;;;16.87;15.07;;;;;;;-143.37;100.00;62585.38;5082164;28;20441;-79
2022/04/25 09:34:59;;;;;;;17.37;15.47;;;;;;;-143.37;100.00;62585.38;5068166;28;20441;-79
2022/04/25 09:37:11;;;;;;;18.90;15.47;;;;;;;-143.37;100.00;62585.38;5051580;28;20461;-79
2022/04/25 09:39:47;;;;;;;16.70;15.00;;;;;;;-143.37;100.00;62585.38;5050223;28;20809;-79
2022/04/25 09:42:28;;;;;;;16.23;14.33;;;;;;;-143.37;100.00;62585.38;5065727;28;20453;-79
2022/04/25 09:45:05;;;;;;;18.77;16.70;;;;;;;-143.37;100.00;62585.38;5048242;28;20461;-79
2022/04/25 09:47:42;;;;;;;19.27;15.87;;;;;;;-143.37;100.00;62585.38;5053220;28;20441;-79
2022/04/25 09:50:22;;;;;;;15.27;13.57;;;;;;;-143.37;100.00;62585.38;5063863;28;20433;-79
2022/04/25 09:52:59;;;;;;;17.13;15.30;;;;;;;-143.37;100.00;62585.38;5064572;28;20461;-79
2022/04/25 09:55:39;;;;;;;18.03;15.60;;;;;;;-143.37;100.00;62585.38;5064005;28;20463;-79
2022/04/25 09:58:22;;;;;;;20.60;17.03;;;;;;;-143.37;100.00;62585.38;5059880;28;20534;-79
2022/04/25 10:01:10;;;;;;;18.10;15.77;;;;;;;-143.37;100.00;62585.38;5065472;28;20540;-79
2022/04/25 10:03:45;;;;;;;21.00;17.33;;;;;;;-143.37;100.00;62585.38;5063257;28;20501;-79
2022/04/25 10:06:23;;;;;;;18.23;16.13;;;;;;;-143.37;100.00;62585.38;5061166;28;20448;-79
2022/04/25 10:09:01;;;;;;;16.07;13.80;;;;;;;-143.37;100.00;62585.38;5048601;28;21616;-79
2022/04/25 10:11:41;;;;;;;17.63;14.33;;;;;;;-143.37;100.00;62585.38;5063612;28;20779;-79
2022/04/25 10:14:18;;;;;;;17.27;14.57;;;;;;;-143.37;100.00;62585.38;5069747;28;20441;-79
2022/04/25 10:16:55;;;;;;;17.77;14.70;;;;;;;-143.37;100.00;62585.38;5071211;28;20496;-79
2022/04/25 10:19:31;;;;;;;16.27;14.67;;;;;;;-143.37;100.00;62585.38;5079843;28;20445;-79
2022/04/25 10:22:09;;;;;;;17.07;15.27;;;;;;;-143.37;100.00;62585.38;5048479;28;20559;-79
2022/04/25 10:24:45;;;;;;;15.17;13.60;;;;;;;-143.37;100.00;62585.38;5045975;28;20433;-79
2022/04/25 10:27:27;;;;;;;16.70;14.90;;;;;;;-143.37;100.00;62585.38;5061292;28;20794;-79
2022/04/25 10:30:09;;;;;;;17.00;14.80;;;;;;;-143.37;100.00;62585.38;5049733;28;20425;-79
2022/04/25 10:32:46;;;;;;;15.70;14.10;;;;;;;-143.37;100.00;62585.38;5083836;28;20535;-79
2022/04/25 10:35:32;;;;;;;15.23;13.63;;;;;;;-143.37;100.00;62585.38;5067934;28;20492;-79
2022/04/25 10:38:49;;;;;;;17.17;14.70;;;;;;;-143.37;100.00;62585.38;5049314;28;20445;-77
2022/04/25 10:44:53;;;;;;;15.90;14.33;;;;;;;-143.37;100.00;62585.38;5080154;28;20453;-79
2022/04/25 10:47:29;;;;;;;17.10;15.33;;;;;;;-143.37;100.00;62585.38;5065310;28;20445;-76
2022/04/25 10:50:07;;;;;;;17.20;15.00;;;;;;;-143.37;100.00;62585.38;5064048;28;20825;-79
2022/04/25 10:52:56;;;;;;;16.07;14.07;;;;;;;-143.37;100.00;62585.38;5048255;28;20459;-79
2022/04/25 10:55:38;;;;;;;14.70;13.20;;;;;;;-143.37;100.00;62585.38;5068797;28;20853;-79
2022/04/25 10:58:18;;;;;;;14.53;13.03;;;;;;;-143.37;100.00;62585.38;5067206;28;20437;-79
2022/04/25 11:00:55;;;;;;;15.80;14.20;;;;;;;-143.37;100.00;62585.38;5049999;28;20438;-79
2022/04/25 11:03:32;;;;;;;15.03;13.53;;;;;;;-143.37;100.00;62585.38;5067659;28;20425;-79
2022/04/25 11:06:24;;;;;;;16.03;14.33;;;;;;;-143.37;100.00;62585.38;5045843;28;20453;-79
2022/04/25 11:09:00;;;;;;;16.60;13.90;;;;;;;-143.37;100.00;62585.38;5043140;28;21003;-79
2022/04/25 11:11:48;;;;;;;14.03;12.63;;;;;;;-143.37;100.00;62585.38;5060844;28;20468;-79
2022/04/25 11:14:24;;;;;;;16.00;13.30;;;;;;;-143.37;100.00;62585.38;5048035;28;20452;-79
2022/04/25 11:17:08;;;;;;;15.17;13.67;;;;;;;-143.37;100.00;62585.38;5046091;28;20990;-76
2022/04/25 11:19:47;;;;;;;16.30;14.43;;;;;;;-143.37;100.00;62585.38;5063597;28;20438;-79
2022/04/25 11:22:52;;;;;;;16.77;14.60;;;;;;;-143.37;100.00;62585.38;5065482;28;20460;-79
2022/04/25 11:25:41;;;;;;;18.00;14.03;;;;;;;-143.37;100.00;62585.38;5060140;28;20799;-79
2022/04/25 11:28:18;;;;;;;15.53;13.50;;;;;;;-143.37;100.00;62585.38;5060108;28;20472;-79
2022/04/25 11:31:20;;;;;;;15.07;13.57;;;;;;;-143.37;100.00;62585.38;5062016;28;20483;-79
2022/04/25 11:33:57;;;;;;;16.80;15.00;;;;;;;-143.37;100.00;62585.38;5068417;28;20445;-79
2022/04/25 11:36:37;;;;;;;15.43;13.23;;;;;;;-143.37;100.00;62585.38;5064216;28;20472;-79
2022/04/25 11:42:11;;;;;;;15.27;13.67;;;;;;;-143.37;100.00;62585.38;5049866;28;20453;-79
2022/04/25 11:44:51;;;;;;;14.80;13.33;;;;;;;-143.37;100.00;62585.38;5060403;28;20810;-79
2022/04/25 11:47:27;;;;;;;16.60;14.90;;;;;;;-143.37;100.00;62585.38;5063391;28;20437;-79
2022/04/25 11:50:05;;;;;;;15.27;13.70;;;;;;;-143.37;100.00;62585.38;5062220;28;20429;-79
2022/04/25 11:52:48;;;;;;;17.63;15.10;;;;;;;-143.37;100.00;62585.38;5065645;28;20441;-79
2022/04/25 11:55:32;;;;;;;16.27;14.40;;;;;;;-143.37;100.00;62585.38;5065786;28;20794;-79
2022/04/25 11:58:08;;;;;;;16.67;14.97;;;;;;;-143.37;100.00;62585.38;5053062;28;20437;-79
2022/04/25 12:00:45;;;;;;;17.80;15.90;;;;;;;-143.37;100.00;62585.38;5055671;28;20449;-79
2022/04/25 12:03:23;;;;;;;16.17;14.50;;;;;;;-143.37;100.00;62585.38;5046655;28;20449;-79
2022/04/25 12:06:08;;;;;;;18.13;15.30;;;;;;;-143.37;100.00;62585.38;5065463;28;20891;-79
2022/04/25 12:17:38;;;;;;;18.03;16.13;;;;;;;-143.37;100.00;62585.38;5066174;28;20449;-80
2022/04/25 12:20:16;;;;;;;17.50;15.17;;;;;;;-143.37;100.00;62585.38;5049384;28;20434;-79
2022/04/25 12:22:53;;;;;;;17.03;15.23;;;;;;;-143.37;100.00;62585.38;5073854;28;20445;-79
2022/04/25 12:25:30;;;;;;;14.83;13.33;;;;;;;-143.37;100.00;62585.38;5075419;28;20429;-79